createdAt,value
2023-04-02T00:01:02.910Z,34.22
2023-04-02T00:03:45.415Z,36.72
2023-04-02T00:06:33.220Z,35.92
2023-04-02T00:09:18.273Z,35.33
2023-04-02T00:11:51.053Z,36.35
2023-04-02T00:14:34.130Z,35.73
2023-04-02T00:17:06.105Z,35.93
2023-04-02T00:20:02.744Z,36.63
2023-04-02T00:22:32.776Z,36.67
2023-04-02T00:25:13.706Z,37.72
2023-04-02T00:27:43.298Z,38.05
2023-04-02T00:30:13.404Z,38.08
2023-04-02T00:32:42.811Z,38.95
2023-04-02T00:35:26.831Z,39.13
2023-04-02T00:37:55.710Z,40.17
2023-04-02T00:40:27.135Z,41.58
2023-04-02T00:42:59.752Z,41.60
2023-04-02T00:45:30.191Z,42.05
2023-04-02T00:48:01.199Z,43.53
2023-04-02T00:50:36.628Z,42.42
2023-04-02T00:53:29.060Z,43.65
2023-04-02T00:55:58.950Z,42.60
2023-04-02T00:58:32.151Z,41.85
2023-04-02T01:01:01.888Z,44.38
2023-04-02T01:03:35.177Z,42.67
2023-04-02T01:06:03.957Z,41.17
2023-04-02T01:08:57.107Z,41.60
2023-04-02T01:11:45.965Z,41.70
2023-04-02T01:14:39.933Z,42.60
2023-04-02T01:17:49.248Z,44.25
2023-04-02T01:20:29.481Z,60.40
2023-04-02T01:23:13.703Z,60.95
2023-04-02T01:26:24.922Z,58.60
2023-04-02T01:28:52.027Z,52.83
2023-04-02T01:31:19.732Z,56.20
2023-04-02T01:33:48.448Z,50.40
2023-04-02T01:36:26.475Z,45.65
2023-04-02T01:39:20.944Z,45.67
2023-04-02T01:41:57.274Z,43.83
2023-04-02T01:44:55.001Z,40.30
2023-04-02T01:47:29.123Z,40.42
2023-04-02T01:50:13.292Z,38.03
2023-04-02T01:52:45.105Z,38.55
2023-04-02T01:55:18.226Z,37.95
2023-04-02T01:57:51.514Z,36.40
2023-04-02T02:00:28.231Z,37.25
2023-04-02T02:02:55.655Z,37.20
2023-04-02T02:05:24.224Z,36.08
2023-04-02T02:07:53.756Z,36.85
2023-04-02T02:10:30.385Z,38.30
2023-04-02T02:13:00.588Z,41.35
2023-04-02T02:15:29.010Z,46.42
2023-04-02T02:18:04.679Z,54.72
2023-04-02T02:20:34.814Z,41.88
2023-04-02T02:23:04.598Z,37.55
2023-04-02T02:25:38.189Z,36.05
2023-04-02T02:31:07.969Z,33.60
2023-04-02T02:33:42.041Z,41.40
2023-04-02T02:36:13.748Z,35.05
2023-04-02T02:38:55.094Z,31.63
2023-04-02T02:41:36.449Z,30.13
2023-04-02T02:44:09.775Z,29.48
2023-04-02T02:46:46.304Z,30.17
2023-04-02T02:49:18.299Z,28.77
2023-04-02T02:51:54.385Z,31.35
2023-04-02T02:54:22.848Z,28.13
2023-04-02T02:57:04.152Z,30.33
2023-04-02T02:59:33.096Z,29.95
2023-04-02T03:02:02.964Z,33.00
2023-04-02T03:04:35.991Z,28.98
2023-04-02T03:07:09.365Z,26.92
2023-04-02T03:09:45.970Z,24.52
2023-04-02T03:12:37.685Z,22.35
2023-04-02T03:15:19.543Z,23.92
2023-04-02T03:18:00.337Z,23.38
2023-04-02T03:20:58.390Z,22.63
2023-04-02T03:23:37.932Z,20.13
2023-04-02T03:26:11.039Z,19.63
2023-04-02T03:28:50.421Z,18.42
2023-04-02T03:31:31.078Z,19.70
2023-04-02T03:34:21.779Z,19.70
2023-04-02T03:37:08.166Z,20.42
2023-04-02T03:39:42.980Z,21.30
2023-04-02T03:42:13.343Z,21.17
2023-04-02T03:45:03.330Z,20.52
2023-04-02T03:47:59.522Z,19.73
2023-04-02T03:50:34.087Z,19.08
2023-04-02T03:53:05.227Z,19.73
2023-04-02T03:55:37.429Z,18.52
2023-04-02T03:58:29.827Z,18.95
2023-04-02T04:01:09.254Z,18.17
2023-04-02T04:03:50.152Z,18.15
2023-04-02T04:06:24.513Z,17.45
2023-04-02T04:09:00.048Z,18.38
2023-04-02T04:11:37.004Z,18.27
2023-04-02T04:14:13.725Z,17.80
2023-04-02T04:17:00.337Z,18.80
2023-04-02T04:19:40.905Z,15.32
2023-04-02T04:22:20.343Z,15.38
2023-04-02T04:24:48.554Z,15.48
2023-04-02T04:27:33.967Z,15.00
2023-04-02T04:30:06.651Z,13.90
2023-04-02T04:32:39.500Z,15.48
2023-04-02T04:35:15.703Z,14.15
2023-04-02T04:37:50.194Z,13.93
2023-04-02T04:40:29.128Z,13.90
2023-04-02T04:43:02.337Z,15.10
2023-04-02T04:45:51.025Z,14.85
2023-04-02T04:48:53.602Z,14.88
2023-04-02T04:51:47.455Z,15.40
2023-04-02T04:54:16.576Z,15.75
2023-04-02T04:56:56.583Z,14.90
2023-04-02T04:59:51.002Z,13.98
2023-04-02T05:02:27.129Z,15.15
2023-04-02T05:04:54.691Z,15.38
2023-04-02T05:07:47.477Z,14.98
2023-04-02T05:10:39.251Z,13.25
2023-04-02T05:13:22.998Z,13.27
2023-04-02T05:18:33.061Z,13.52
2023-04-02T05:21:25.269Z,13.43
2023-04-02T05:24:00.370Z,12.05
2023-04-02T05:26:42.472Z,12.57
2023-04-02T05:29:13.731Z,10.52
2023-04-02T05:31:50.607Z,9.38
2023-04-02T05:34:26.581Z,8.00
2023-04-02T05:36:56.027Z,7.82
2023-04-02T05:39:25.633Z,5.63
2023-04-02T05:42:05.532Z,6.13
2023-04-02T05:44:39.058Z,5.85
2023-04-02T05:47:12.615Z,5.65
2023-04-02T05:49:40.112Z,5.65
2023-04-02T05:52:13.271Z,6.72
2023-04-02T05:54:55.297Z,6.88
2023-04-02T05:57:44.590Z,7.40
2023-04-02T06:00:30.146Z,7.03
2023-04-02T06:03:16.468Z,8.00
2023-04-02T06:05:46.901Z,7.18
2023-04-02T06:08:24.210Z,7.35
2023-04-02T06:11:01.716Z,6.25
2023-04-02T06:13:29.471Z,6.47
2023-04-02T06:15:56.876Z,6.45
2023-04-02T06:18:27.619Z,7.50
2023-04-02T06:20:56.205Z,6.43
2023-04-02T06:23:40.353Z,5.90
2023-04-02T06:26:33.439Z,6.00
2023-04-02T06:29:09.241Z,7.53
2023-04-02T06:31:39.426Z,9.25
2023-04-02T06:34:23.110Z,7.97
2023-04-02T06:36:54.934Z,8.90
2023-04-02T06:39:24.648Z,9.25
2023-04-02T06:42:17.293Z,7.32
2023-04-02T06:44:44.915Z,7.95
2023-04-02T06:47:39.927Z,9.48
2023-04-02T06:50:17.152Z,10.68
2023-04-02T06:52:51.307Z,33.67
2023-04-02T06:55:22.021Z,15.82
2023-04-02T06:57:49.579Z,28.15
2023-04-02T07:00:34.965Z,37.58
2023-04-02T07:03:06.907Z,36.15
2023-04-02T07:05:34.517Z,18.75
2023-04-02T07:08:02.099Z,25.55
2023-04-02T07:11:02.334Z,21.90
2023-04-02T07:13:29.740Z,23.77
2023-04-02T07:15:58.303Z,37.90
2023-04-02T07:18:34.454Z,31.45
2023-04-02T07:21:02.017Z,25.33
2023-04-02T07:23:30.577Z,23.45
2023-04-02T07:25:58.695Z,23.88
2023-04-02T07:28:26.816Z,24.05
2023-04-02T07:31:00.114Z,24.23
2023-04-02T07:33:30.637Z,24.98
2023-04-02T07:35:59.047Z,23.35
2023-04-02T07:38:26.882Z,23.92
2023-04-02T07:40:54.590Z,23.38
2023-04-02T07:43:23.512Z,21.27
2023-04-02T07:45:51.983Z,21.65
2023-04-02T07:48:26.698Z,20.48
2023-04-02T07:50:53.843Z,19.00
2023-04-02T07:53:34.721Z,18.80
2023-04-02T07:56:04.085Z,17.52
2023-04-02T07:58:32.902Z,17.40
2023-04-02T08:01:02.043Z,10.30
2023-04-02T08:03:29.868Z,9.70
2023-04-02T08:05:59.008Z,6.60
2023-04-02T08:08:27.467Z,6.00
2023-04-02T08:10:55.857Z,5.70
2023-04-02T08:13:23.014Z,8.32
2023-04-02T08:15:50.700Z,6.55
2023-04-02T08:18:17.852Z,7.88
2023-04-02T08:20:45.394Z,5.30
2023-04-02T08:23:18.298Z,6.13
2023-04-02T08:25:46.532Z,6.80
2023-04-02T08:28:21.686Z,7.25
2023-04-02T08:30:51.670Z,7.47
2023-04-02T08:33:20.061Z,7.93
2023-04-02T08:35:48.966Z,7.53
2023-04-02T08:38:18.896Z,8.93
2023-04-02T08:40:50.769Z,8.25
2023-04-02T08:44:01.151Z,8.18
2023-04-02T08:46:35.313Z,7.50
2023-04-02T08:49:15.194Z,8.95
2023-04-02T08:51:46.005Z,8.65
2023-04-02T08:54:24.670Z,8.23
2023-04-02T08:57:22.599Z,8.77
2023-04-02T08:59:57.489Z,8.27
2023-04-02T09:03:02.872Z,9.05
2023-04-02T09:05:34.786Z,8.23
2023-04-02T09:08:14.284Z,9.07
2023-04-02T09:11:00.089Z,9.30
2023-04-02T09:13:30.445Z,8.60
2023-04-02T09:16:22.796Z,8.25
2023-04-02T09:18:53.115Z,8.75
2023-04-02T09:21:37.628Z,8.85
2023-04-02T09:24:05.505Z,10.20
2023-04-02T09:26:34.653Z,9.57
2023-04-02T09:29:16.121Z,10.15
2023-04-02T09:31:55.910Z,10.48
2023-04-02T09:34:37.348Z,9.32
2023-04-02T09:37:31.170Z,9.00
2023-04-02T09:40:17.262Z,9.10
2023-04-02T09:42:44.866Z,9.57
2023-04-02T09:45:22.507Z,8.75
2023-04-02T09:47:51.807Z,10.07
2023-04-02T09:50:32.052Z,10.25
2023-04-02T09:53:17.119Z,10.50
2023-04-02T09:55:50.769Z,11.30
2023-04-02T09:58:19.169Z,11.40
2023-04-02T10:00:55.542Z,11.82
2023-04-02T10:03:28.756Z,12.32
2023-04-02T10:06:15.041Z,12.73
2023-04-02T10:08:45.954Z,12.23
2023-04-02T10:11:18.596Z,12.00
2023-04-02T10:14:00.987Z,9.50
2023-04-02T10:16:35.563Z,11.20
2023-04-02T10:19:32.722Z,9.85
2023-04-02T10:22:04.595Z,10.57
2023-04-02T10:24:34.165Z,9.38
2023-04-02T10:27:18.031Z,9.40
2023-04-02T10:30:05.752Z,10.40
2023-04-02T10:33:21.782Z,10.45
2023-04-02T10:36:10.731Z,10.00
2023-04-02T10:38:46.458Z,11.20
2023-04-02T10:41:17.358Z,11.57
2023-04-02T10:44:18.918Z,10.07
2023-04-02T10:47:12.742Z,10.68
2023-04-02T10:49:56.365Z,11.35
2023-04-02T10:52:53.524Z,11.10
2023-04-02T10:55:30.677Z,10.82
2023-04-02T10:58:03.868Z,9.30
2023-04-02T11:00:41.698Z,13.73
2023-04-02T11:03:17.243Z,11.50
2023-04-02T11:05:52.559Z,14.43
2023-04-02T11:08:22.687Z,11.52
2023-04-02T11:11:03.330Z,14.32
2023-04-02T11:13:43.410Z,13.93
2023-04-02T11:16:15.830Z,10.90
2023-04-02T11:18:43.403Z,11.93
2023-04-02T11:21:51.063Z,9.60
2023-04-02T11:24:37.474Z,10.38
2023-04-02T11:27:10.784Z,9.95
2023-04-02T11:29:41.094Z,9.90
2023-04-02T11:32:36.064Z,8.90
2023-04-02T11:35:31.780Z,8.60
2023-04-02T11:38:20.060Z,8.18
2023-04-02T11:40:56.006Z,8.23
2023-04-02T11:43:34.953Z,8.77
2023-04-02T11:46:17.371Z,9.23
2023-04-02T11:48:45.006Z,8.82
2023-04-02T11:51:22.866Z,10.00
2023-04-02T11:53:58.796Z,10.25
2023-04-02T11:56:40.342Z,8.93
2023-04-02T11:59:58.415Z,9.35
2023-04-02T12:02:32.387Z,9.80
2023-04-02T12:05:05.430Z,9.70
2023-04-02T12:08:28.845Z,9.30
2023-04-02T12:11:00.836Z,8.73
2023-04-02T12:13:41.157Z,8.93
2023-04-02T12:16:12.614Z,8.63
2023-04-02T12:18:51.616Z,9.70
2023-04-02T12:21:21.157Z,10.90
2023-04-02T12:23:52.159Z,11.32
2023-04-02T12:26:37.927Z,12.65
2023-04-02T12:29:25.207Z,11.90
2023-04-02T12:31:55.778Z,11.15
2023-04-02T12:34:27.938Z,12.48
2023-04-02T12:37:04.522Z,12.57
2023-04-02T12:39:34.998Z,10.93
2023-04-02T12:42:03.654Z,14.00
2023-04-02T12:44:32.478Z,12.40
2023-04-02T12:47:00.175Z,10.18
2023-04-02T12:49:41.907Z,11.27
2023-04-02T12:52:15.537Z,11.50
2023-04-02T12:54:49.969Z,11.52
2023-04-02T12:57:40.316Z,12.57
2023-04-02T13:00:23.401Z,12.55
2023-04-02T13:02:59.009Z,11.97
2023-04-02T13:05:42.318Z,12.48
2023-04-02T13:08:41.822Z,10.77
2023-04-02T13:11:10.880Z,11.15
2023-04-02T13:13:41.552Z,11.10
2023-04-02T13:16:18.151Z,9.98
2023-04-02T13:18:48.219Z,10.30
2023-04-02T13:21:24.240Z,9.85
2023-04-02T13:23:51.450Z,16.58
2023-04-02T13:26:27.471Z,11.75
2023-04-02T13:29:22.159Z,20.55
2023-04-02T13:31:50.736Z,26.10
2023-04-02T13:34:18.833Z,14.38
2023-04-02T13:36:47.018Z,13.57
2023-04-02T13:39:14.877Z,16.13
2023-04-02T13:41:47.985Z,11.25
2023-04-02T13:44:21.526Z,9.20
2023-04-02T13:49:20.437Z,12.95
2023-04-02T13:52:05.533Z,14.40
2023-04-02T13:54:42.159Z,12.95
2023-04-02T13:57:09.968Z,8.35
2023-04-02T13:59:37.240Z,8.40
2023-04-02T14:02:13.717Z,11.52
2023-04-02T14:04:50.630Z,15.73
2023-04-02T14:07:34.143Z,18.52
2023-04-02T14:10:26.711Z,15.43
2023-04-02T14:13:21.348Z,14.30
2023-04-02T14:16:07.951Z,12.38
2023-04-02T14:18:50.744Z,8.40
2023-04-02T14:21:54.277Z,9.43
2023-04-02T14:24:52.293Z,10.00
2023-04-02T14:27:19.813Z,9.13
2023-04-02T14:29:59.920Z,8.35
2023-04-02T14:32:56.073Z,8.48
2023-04-02T14:35:34.204Z,8.25
2023-04-02T14:38:10.430Z,8.45
2023-04-02T14:40:38.215Z,8.27
2023-04-02T14:43:12.383Z,8.68
2023-04-02T14:46:00.998Z,8.68
2023-04-02T14:48:54.943Z,8.93
2023-04-02T14:51:57.381Z,8.32
2023-04-02T14:54:36.813Z,7.68
2023-04-02T14:57:12.439Z,8.48
2023-04-02T15:00:01.574Z,8.80
2023-04-02T15:02:54.056Z,8.70
2023-04-02T15:05:41.402Z,8.32
2023-04-02T15:08:23.629Z,8.43
2023-04-02T15:11:08.818Z,8.18
2023-04-02T15:13:47.183Z,8.27
2023-04-02T15:16:19.785Z,8.27
2023-04-02T15:18:53.291Z,8.27
2023-04-02T15:24:14.591Z,8.13
2023-04-02T15:27:25.484Z,7.85
2023-04-02T15:30:19.286Z,7.97
2023-04-02T15:32:50.771Z,7.05
2023-04-02T15:35:46.118Z,7.55
2023-04-02T15:38:50.084Z,7.07
2023-04-02T15:41:27.908Z,6.78
2023-04-02T15:44:15.748Z,6.65
2023-04-02T15:47:05.450Z,6.97
2023-04-02T15:49:33.750Z,6.50
2023-04-02T15:52:25.438Z,6.20
2023-04-02T15:55:19.753Z,6.93
2023-04-02T15:58:19.472Z,6.55
2023-04-02T16:01:18.855Z,6.70
2023-04-02T16:04:20.285Z,6.43
2023-04-02T16:07:08.391Z,6.82
2023-04-02T16:09:58.482Z,6.55
2023-04-02T16:12:34.052Z,6.55
2023-04-02T16:15:27.363Z,6.95
2023-04-02T16:18:03.911Z,7.38
2023-04-02T16:21:05.246Z,7.68
2023-04-02T16:23:39.208Z,7.20
2023-04-02T16:26:29.990Z,7.43
2023-04-02T16:29:09.817Z,7.15
2023-04-02T16:31:48.192Z,7.63
2023-04-02T16:34:43.710Z,7.38
2023-04-02T16:37:18.231Z,7.47
2023-04-02T16:40:04.200Z,8.35
2023-04-02T16:43:00.676Z,7.70
2023-04-02T16:45:39.528Z,8.38
2023-04-02T16:48:26.326Z,8.73
2023-04-02T16:51:03.371Z,8.68
2023-04-02T16:54:01.481Z,9.35
2023-04-02T16:56:49.177Z,9.45
2023-04-02T16:59:34.211Z,9.35
2023-04-02T17:02:23.339Z,9.10
2023-04-02T17:04:57.352Z,9.70
2023-04-02T17:07:50.831Z,9.52
2023-04-02T17:10:32.491Z,9.55
2023-04-02T17:13:26.920Z,8.48
2023-04-02T17:16:23.235Z,28.85
2023-04-02T17:18:59.241Z,12.05
2023-04-02T17:21:29.831Z,11.05
2023-04-02T17:24:31.042Z,11.80
2023-04-02T17:27:12.178Z,10.85
2023-04-02T17:29:45.652Z,10.52
2023-04-02T17:34:50.986Z,10.30
2023-04-02T17:37:40.093Z,10.55
2023-04-02T17:40:33.221Z,10.98
2023-04-02T17:43:45.461Z,11.48
2023-04-02T17:46:50.884Z,11.05
2023-04-02T17:49:42.268Z,10.63
2023-04-02T17:52:35.104Z,11.10
2023-04-02T17:55:32.022Z,11.75
2023-04-02T17:58:28.183Z,12.25
2023-04-02T18:01:21.602Z,11.48
2023-04-02T18:04:07.921Z,13.10
2023-04-02T18:06:51.016Z,12.55
2023-04-02T18:09:40.336Z,11.25
2023-04-02T18:12:19.648Z,11.23
2023-04-02T18:15:06.321Z,12.02
2023-04-02T18:18:11.165Z,13.25
2023-04-02T18:21:18.284Z,12.68
2023-04-02T18:24:10.213Z,14.80
2023-04-02T18:26:52.322Z,15.05
2023-04-02T18:29:57.996Z,14.18
2023-04-02T18:32:57.183Z,24.40
2023-04-02T18:35:54.401Z,13.18
2023-04-02T18:38:43.068Z,20.38
2023-04-02T18:41:43.278Z,12.20
2023-04-02T18:44:41.264Z,33.65
2023-04-02T18:47:30.898Z,38.10
2023-04-02T18:50:36.390Z,30.38
2023-04-02T18:53:20.275Z,20.17
2023-04-02T18:56:10.176Z,13.57
2023-04-02T18:59:05.702Z,16.42
2023-04-02T19:01:47.029Z,16.67
2023-04-02T19:04:37.124Z,14.88
2023-04-02T19:07:19.632Z,17.02
2023-04-02T19:09:52.736Z,16.13
2023-04-02T19:12:26.437Z,15.63
2023-04-02T19:14:56.815Z,17.48
2023-04-02T19:17:36.878Z,20.27
2023-04-02T19:20:59.359Z,23.25
2023-04-02T19:23:30.765Z,18.77
2023-04-02T19:26:02.508Z,17.88
2023-04-02T19:29:11.219Z,17.88
2023-04-02T19:32:03.758Z,17.02
2023-04-02T19:34:58.765Z,18.25
2023-04-02T19:37:39.753Z,16.95
2023-04-02T19:40:14.054Z,13.68
2023-04-02T19:43:03.085Z,13.57
2023-04-02T19:45:43.119Z,13.70
2023-04-02T19:48:25.964Z,15.35
2023-04-02T19:50:55.343Z,14.03
2023-04-02T19:53:24.210Z,12.82
2023-04-02T19:55:55.798Z,12.32
2023-04-02T19:58:38.830Z,13.70
2023-04-02T20:01:07.147Z,11.23
2023-04-02T20:03:35.708Z,12.35
2023-04-02T20:06:06.670Z,12.40
2023-04-02T20:08:39.971Z,10.93
2023-04-02T20:11:08.691Z,12.65
2023-04-02T20:13:39.285Z,11.07
2023-04-02T20:16:08.715Z,10.20
2023-04-02T20:18:37.950Z,11.27
2023-04-02T20:21:07.814Z,10.82
2023-04-02T20:23:37.294Z,10.23
2023-04-02T20:26:08.044Z,11.02
2023-04-02T20:28:37.278Z,10.00
2023-04-02T20:31:19.250Z,10.00
2023-04-02T20:33:48.310Z,9.43
2023-04-02T20:36:17.730Z,9.85
2023-04-02T20:38:46.775Z,8.93
2023-04-02T20:41:16.531Z,9.73
2023-04-02T20:43:43.899Z,9.57
2023-04-02T20:46:13.023Z,8.85
2023-04-02T20:48:41.127Z,9.52
2023-04-02T20:54:14.961Z,8.63
2023-04-02T20:56:43.511Z,8.27
2023-04-02T20:59:11.406Z,8.30
2023-04-02T21:01:38.959Z,7.95
2023-04-02T21:04:07.331Z,7.78
2023-04-02T21:06:38.552Z,8.57
2023-04-02T21:09:11.230Z,8.10
2023-04-02T21:11:38.908Z,8.10
2023-04-02T21:14:06.710Z,7.60
2023-04-02T21:16:35.228Z,7.93
2023-04-02T21:19:07.432Z,8.43
2023-04-02T21:21:36.114Z,9.07
2023-04-02T21:24:06.024Z,9.98
2023-04-02T21:26:36.233Z,9.18
2023-04-02T21:29:04.579Z,8.05
2023-04-02T21:31:38.126Z,8.23
2023-04-02T21:34:08.792Z,8.38
2023-04-02T21:36:41.062Z,8.48
2023-04-02T21:39:17.127Z,9.00
2023-04-02T21:41:53.521Z,11.52
2023-04-02T21:44:23.002Z,8.77
2023-04-02T21:46:53.584Z,10.05
2023-04-02T21:49:22.948Z,9.07
2023-04-02T21:51:53.844Z,7.82
2023-04-02T21:54:21.865Z,8.00
2023-04-02T21:56:49.693Z,9.23
2023-04-02T21:59:18.063Z,10.82
2023-04-02T22:01:48.922Z,8.52
2023-04-02T22:04:19.952Z,11.82
2023-04-02T22:06:47.330Z,11.82
2023-04-02T22:09:20.599Z,11.18
2023-04-02T22:11:51.126Z,12.90
2023-04-02T22:14:19.490Z,14.07
2023-04-02T22:16:47.809Z,12.18
2023-04-02T22:19:16.336Z,7.70
2023-04-02T22:21:44.410Z,7.45
2023-04-02T22:24:15.829Z,5.47
2023-04-02T22:26:43.197Z,5.60
2023-04-02T22:29:12.032Z,5.70
2023-04-02T22:31:40.351Z,5.50
2023-04-02T22:34:09.716Z,5.70
2023-04-02T22:36:39.265Z,5.70
2023-04-02T22:39:10.030Z,5.93
2023-04-02T22:41:38.705Z,5.35
2023-04-02T22:44:06.228Z,5.07
2023-04-02T22:46:36.261Z,6.15
2023-04-02T22:49:03.587Z,4.93
2023-04-02T22:51:37.420Z,5.00
2023-04-02T22:54:11.902Z,5.07
2023-04-02T22:56:39.376Z,4.45
2023-04-02T22:59:06.904Z,4.60
2023-04-02T23:01:36.271Z,4.70
2023-04-02T23:04:05.502Z,4.65
2023-04-02T23:06:32.804Z,5.18
2023-04-02T23:09:02.403Z,4.63
2023-04-02T23:11:29.742Z,4.45
2023-04-02T23:13:58.325Z,4.40
2023-04-02T23:16:29.002Z,4.50
2023-04-02T23:18:58.389Z,4.47
2023-04-02T23:21:26.704Z,4.18
2023-04-02T23:23:54.998Z,4.05
2023-04-02T23:26:29.706Z,4.10
2023-04-02T23:29:00.799Z,4.30
2023-04-02T23:31:29.839Z,3.92
2023-04-02T23:33:57.402Z,4.18
2023-04-02T23:36:33.200Z,4.03
2023-04-02T23:39:11.629Z,4.22
2023-04-02T23:41:41.222Z,3.92
2023-04-02T23:44:09.856Z,3.83
2023-04-02T23:46:37.451Z,3.55
2023-04-02T23:49:04.652Z,4.35
2023-04-02T23:51:33.107Z,4.15
2023-04-02T23:54:00.947Z,3.88
2023-04-02T23:56:28.529Z,4.35
2023-04-02T23:58:57.068Z,4.00
